Terminal Aerodrome Forecast
Issued by NWS

Home | Current Version | Previous Version | Text Only | Print | Product List | Glossary Off
Versions: 1 2 3 4 5 6 7 8 9 10 11 12 13 14 15 16 17

000
FTUS43 KICT 260125 AAA
TAFRSL
TAF AMD
KRSL 260125Z 2601/2624 15010KT P6SM VCTS BKN050CB
     FM260400 VRB06KT P6SM SCT015 BKN050
     FM261000 27007KT P6SM SCT150
     FM261900 26008KT P6SM SCT040=

USA.gov is the U.S. government's official web portal to all federal, state and local government web resources and services.